Monthalia, Texas
Current Conditions -  °F | °C
As of 6:51 PM on Saturday 20 Dec 2014 (Local Time) from KBAZ Reporting Station
Overcast Overcast  
Wind Chill: 54°   Ceiling: 2800
Heat Index: 54°   Visibility: 10mi
Dew Point: 47°   Wind: 5mph
Humidity: 77%   Direction: 50°NE
Pressure: 30.15"   Gusts: NA
Location:  29.4298°N, 97.5714°W
Report Text: KBAZ 210051Z 05004KT 10SM OVC028 12/08 A3015 RMK AO2 SLP209 T01220083
Loading
Personal Weather Stations






























Interactive Weather Map New forecast layout! Learn more

10-Day Weather Forecast

Advertisements
Track Severe Weather on mobile